Time;durP1;ratioP1;P1;durP2;ratioP2;P2;SDS_P1;SDS_P2;PMS_P1;PMS_P2;Temp;Humidity;BMP_temperature;BMP_pressure;BME280_temperature;BME280_humidity;BME280_pressure;Samples;Min_cycle;Max_cycle;Signal;HPM_P1;HPM_P2
2023/07/19 00:04:51;;;;;;;1999.90;999.90;;;;;;;;;;6758896;88;20161;-80
2023/07/19 00:14:52;;;;;;;1999.90;999.90;;;;;;;;;;6755741;88;20181;-79
2023/07/19 00:24:53;;;;;;;1999.90;999.90;;;;;;;;;;6752764;88;20228;-79
2023/07/19 00:34:54;;;;;;;1999.90;999.90;;;;;;;;;;6753821;88;20203;-80
2023/07/19 00:44:55;;;;;;;1999.90;999.90;;;;;;;;;;6748552;88;20636;-79
2023/07/19 00:54:56;;;;;;;1999.90;999.90;;;;;;;;;;6747091;88;20210;-81
2023/07/19 01:04:57;;;;;;;1999.90;999.90;;;;;;;;;;6751000;88;20185;-80
2023/07/19 01:14:58;;;;;;;1999.90;999.90;;;;;;;;;;6748402;88;20567;-79
2023/07/19 01:25:02;;;;;;;1999.90;999.90;;;;;;;;;;6751218;88;20213;-80
2023/07/19 01:35:03;;;;;;;1999.90;999.90;;;;;;;;;;6750974;88;20821;-79
2023/07/19 01:45:05;;;;;;;1999.90;999.90;;;;;;;;;;6749843;88;20255;-80
2023/07/19 01:55:06;;;;;;;1999.90;999.90;;;;;;;;;;6753935;88;20181;-79
2023/07/19 02:05:08;;;;;;;1999.90;999.90;;;;;;;;;;6753563;88;20283;-79
2023/07/19 02:15:09;;;;;;;1999.90;999.90;;;;;;;;;;6758962;88;20216;-80
2023/07/19 02:25:10;;;;;;;1999.90;999.90;;;;;;;;;;6757797;88;20197;-79
2023/07/19 02:35:11;;;;;;;1999.90;999.90;;;;;;;;;;6758867;88;20331;-80
2023/07/19 02:45:12;;;;;;;1999.90;999.90;;;;;;;;;;6755987;88;20205;-80
2023/07/19 02:55:13;;;;;;;1999.90;999.90;;;;;;;;;;6755683;88;20195;-77
2023/07/19 03:05:15;;;;;;;1999.90;999.90;;;;;;;;;;6756372;88;20313;-79
2023/07/19 03:15:16;;;;;;;1999.90;999.90;;;;;;;;;;6755268;88;20241;-79
2023/07/19 03:25:17;;;;;;;1999.90;999.90;;;;;;;;;;6756058;88;20711;-78
2023/07/19 03:35:19;;;;;;;1999.90;999.90;;;;;;;;;;6753828;88;20301;-80
2023/07/19 03:45:20;;;;;;;1999.90;999.90;;;;;;;;;;6752161;88;20227;-80
2023/07/19 03:55:21;;;;;;;1999.90;999.90;;;;;;;;;;6755250;88;20691;-80
2023/07/19 04:05:22;;;;;;;1999.90;999.90;;;;;;;;;;6752588;88;20255;-79
2023/07/19 04:15:23;;;;;;;1999.90;999.90;;;;;;;;;;6751777;88;20294;-80
2023/07/19 04:25:24;;;;;;;1999.90;999.90;;;;;;;;;;6751786;88;20240;-81
2023/07/19 04:35:27;;;;;;;1999.90;999.90;;;;;;;;;;6755895;88;20192;-79
2023/07/19 04:45:30;;;;;;;1999.90;999.90;;;;;;;;;;6755959;88;20197;-80
2023/07/19 04:55:31;;;;;;;1999.90;999.90;;;;;;;;;;6757534;88;20177;-81
2023/07/19 05:05:31;;;;;;;1999.90;999.90;;;;;;;;;;6757319;88;20217;-82
2023/07/19 05:15:33;;;;;;;1999.90;999.90;;;;;;;;;;6754045;88;20201;-82
2023/07/19 05:25:34;;;;;;;1999.90;999.90;;;;;;;;;;6758402;88;20306;-78
2023/07/19 05:35:36;;;;;;;1999.90;999.90;;;;;;;;;;6761863;88;20368;-81
2023/07/19 05:45:37;;;;;;;1999.90;999.90;;;;;;;;;;6756251;88;20297;-79
2023/07/19 05:55:39;;;;;;;1999.90;999.90;;;;;;;;;;6759771;88;20632;-80
2023/07/19 06:05:40;;;;;;;1999.90;999.90;;;;;;;;;;6756928;88;20326;-79
2023/07/19 06:15:41;;;;;;;1999.90;999.90;;;;;;;;;;6755686;88;20206;-79
2023/07/19 06:25:42;;;;;;;1999.90;999.90;;;;;;;;;;6759111;88;20276;-81
2023/07/19 06:35:44;;;;;;;1999.90;999.90;;;;;;;;;;6759321;88;20199;-78
2023/07/19 06:45:46;;;;;;;1999.90;999.90;;;;;;;;;;6760577;88;20667;-79
2023/07/19 06:55:47;;;;;;;1999.90;999.90;;;;;;;;;;6762104;88;20540;-80
2023/07/19 07:15:52;;;;;;;1999.90;999.90;;;;;;;;;;6724808;88;20355;-79
2023/07/19 07:25:53;;;;;;;1999.90;999.90;;;;;;;;;;6724754;88;20193;-80
2023/07/19 07:35:54;;;;;;;1999.90;999.90;;;;;;;;;;6721970;88;20198;-80
2023/07/19 07:45:55;;;;;;;1999.90;999.90;;;;;;;;;;6713213;88;20189;-80
2023/07/19 07:55:56;;;;;;;1999.90;999.90;;;;;;;;;;6707435;88;20222;-80
2023/07/19 08:05:57;;;;;;;1999.90;999.90;;;;;;;;;;6708794;88;20197;-79
2023/07/19 08:15:58;;;;;;;1999.90;999.90;;;;;;;;;;6722016;88;20188;-79
2023/07/19 08:25:59;;;;;;;1999.90;999.90;;;;;;;;;;6727244;88;20367;-80
2023/07/19 08:36:00;;;;;;;1999.90;999.90;;;;;;;;;;6723197;88;20636;-80
2023/07/19 08:46:02;;;;;;;1999.90;999.90;;;;;;;;;;6721623;88;20430;-80
2023/07/19 08:56:03;;;;;;;1999.90;999.90;;;;;;;;;;6724675;88;20656;-79
2023/07/19 09:06:04;;;;;;;1999.90;999.90;;;;;;;;;;6724713;88;20192;-80
2023/07/19 09:16:05;;;;;;;1999.90;999.90;;;;;;;;;;6725628;88;20199;-80
2023/07/19 09:26:06;;;;;;;1999.90;999.90;;;;;;;;;;6722208;88;20219;-80
2023/07/19 09:36:07;;;;;;;1999.90;999.90;;;;;;;;;;6725145;88;20197;-79
2023/07/19 09:46:09;;;;;;;1999.90;999.90;;;;;;;;;;6724287;88;20695;-80
2023/07/19 09:56:11;;;;;;;1999.90;999.90;;;;;;;;;;6727009;88;20685;-80
2023/07/19 10:06:14;;;;;;;1999.90;999.90;;;;;;;;;;6725969;88;20220;-79
2023/07/19 10:16:25;;;;;;;1999.90;999.90;;;;;;;;;;6724285;88;20657;-79
2023/07/19 10:26:30;;;;;;;1999.90;999.90;;;;;;;;;;6706666;88;20374;-79
2023/07/19 10:36:31;;;;;;;1999.90;999.90;;;;;;;;;;6705540;88;20597;-78
2023/07/19 10:46:32;;;;;;;1999.90;999.90;;;;;;;;;;6704832;88;20321;-79
2023/07/19 10:56:33;;;;;;;1999.90;999.90;;;;;;;;;;6702450;88;20206;-79
2023/07/19 11:06:34;;;;;;;1999.90;999.90;;;;;;;;;;6709461;88;20223;-79
2023/07/19 11:16:35;;;;;;;1999.90;999.90;;;;;;;;;;6716538;88;20197;-78
2023/07/19 11:26:50;;;;;;;1999.90;999.90;;;;;;;;;;6711407;88;20192;-78
2023/07/19 11:36:51;;;;;;;1999.90;999.90;;;;;;;;;;6714043;88;20207;-79
2023/07/19 11:46:52;;;;;;;1999.90;999.90;;;;;;;;;;6722403;88;20181;-79
2023/07/19 11:56:56;;;;;;;1999.90;999.90;;;;;;;;;;6722292;88;20272;-80
2023/07/19 12:06:57;;;;;;;1999.90;999.90;;;;;;;;;;6724393;88;20205;-80
2023/07/19 12:16:58;;;;;;;1999.90;999.90;;;;;;;;;;6726050;88;20169;-81
2023/07/19 12:26:59;;;;;;;1999.90;999.90;;;;;;;;;;6728343;88;20194;-79
2023/07/19 12:37:00;;;;;;;1999.90;999.90;;;;;;;;;;6724628;88;20197;-79
2023/07/19 12:47:01;;;;;;;1999.90;999.90;;;;;;;;;;6734469;88;20202;-80
2023/07/19 12:57:02;;;;;;;1999.90;999.90;;;;;;;;;;6736370;88;20233;-79
2023/07/19 13:17:09;;;;;;;1999.90;999.90;;;;;;;;;;6767126;88;20201;-79
2023/07/19 13:27:10;;;;;;;1999.90;999.90;;;;;;;;;;6738512;88;20541;-78
2023/07/19 13:37:11;;;;;;;1999.90;999.90;;;;;;;;;;6764490;88;20195;-78
2023/07/19 13:47:12;;;;;;;1999.90;999.90;;;;;;;;;;6765980;88;20176;-81
2023/07/19 13:57:13;;;;;;;1999.90;999.90;;;;;;;;;;6756316;88;20212;-79
2023/07/19 14:07:14;;;;;;;1999.90;999.90;;;;;;;;;;6753905;88;20450;-81
2023/07/19 14:17:16;;;;;;;1999.90;999.90;;;;;;;;;;6762492;88;20186;-80
2023/07/19 14:27:16;;;;;;;1999.90;999.90;;;;;;;;;;6750893;88;20802;-78
2023/07/19 14:37:18;;;;;;;1999.90;999.90;;;;;;;;;;6753826;88;20221;-80
2023/07/19 14:47:19;;;;;;;1999.90;999.90;;;;;;;;;;6753365;88;20186;-80
2023/07/19 14:57:20;;;;;;;1999.90;999.90;;;;;;;;;;6755310;88;20201;-79
2023/07/19 15:07:21;;;;;;;1999.90;999.90;;;;;;;;;;6749247;88;20193;-80
2023/07/19 15:17:22;;;;;;;1999.90;999.90;;;;;;;;;;6755667;88;20842;-79
2023/07/19 15:27:23;;;;;;;1999.90;999.90;;;;;;;;;;6750494;88;20668;-79
2023/07/19 15:37:24;;;;;;;1999.90;999.90;;;;;;;;;;6756960;88;20193;-79
2023/07/19 15:47:27;;;;;;;1999.90;999.90;;;;;;;;;;6755512;88;20185;-78
2023/07/19 15:57:28;;;;;;;1999.90;999.90;;;;;;;;;;6758891;88;20220;-77
2023/07/19 16:07:33;;;;;;;1999.90;999.90;;;;;;;;;;6765304;88;20869;-80
2023/07/19 16:17:34;;;;;;;1999.90;999.90;;;;;;;;;;6763811;88;20165;-77
2023/07/19 16:27:35;;;;;;;1999.90;999.90;;;;;;;;;;6747553;88;20169;-79
2023/07/19 16:37:36;;;;;;;1999.90;999.90;;;;;;;;;;6766298;88;20199;-77
2023/07/19 16:47:38;;;;;;;1999.90;999.90;;;;;;;;;;6768772;88;20204;-79
2023/07/19 16:57:39;;;;;;;1999.90;999.90;;;;;;;;;;6767523;88;20152;-78
2023/07/19 17:07:40;;;;;;;1999.90;999.90;;;;;;;;;;6764248;88;20264;-78
2023/07/19 17:17:41;;;;;;;1999.90;999.90;;;;;;;;;;6763824;88;20259;-78
2023/07/19 17:27:42;;;;;;;1999.90;999.90;;;;;;;;;;6768692;88;20188;-79
2023/07/19 17:37:43;;;;;;;1999.90;999.90;;;;;;;;;;6763742;88;20219;-78
2023/07/19 17:47:44;;;;;;;1999.90;999.90;;;;;;;;;;6766533;88;20165;-76
2023/07/19 17:57:45;;;;;;;1999.90;999.90;;;;;;;;;;6767879;88;20145;-79
2023/07/19 18:07:46;;;;;;;1999.90;999.90;;;;;;;;;;6766954;88;20161;-80
2023/07/19 18:17:47;;;;;;;1999.90;999.90;;;;;;;;;;6764539;88;20239;-81
2023/07/19 18:27:48;;;;;;;1999.90;999.90;;;;;;;;;;6764519;88;20275;-79
2023/07/19 18:37:49;;;;;;;1999.90;999.90;;;;;;;;;;6763132;88;20207;-77
2023/07/19 18:47:50;;;;;;;1999.90;999.90;;;;;;;;;;6762944;88;20627;-81
2023/07/19 18:57:51;;;;;;;1999.90;999.90;;;;;;;;;;6761204;88;20301;-79
2023/07/19 19:07:52;;;;;;;1999.90;999.90;;;;;;;;;;6760671;88;20216;-81
2023/07/19 19:17:52;;;;;;;1999.90;999.90;;;22.30;99.90;;;;;;6755946;88;20206;-83
2023/07/19 19:27:53;;;;;;;1999.90;999.90;;;;;;;;;;6756969;88;20170;-80
2023/07/19 19:37:54;;;;;;;1999.90;999.90;;;;;;;;;;6756999;88;20229;-82
2023/07/19 19:47:55;;;;;;;1999.90;999.90;;;;;;;;;;6755443;88;20219;-80
2023/07/19 19:57:56;;;;;;;1999.90;999.90;;;;;;;;;;6757016;88;20242;-80
2023/07/19 20:07:59;;;;;;;1999.90;999.90;;;;;;;;;;6757814;88;20250;-80
2023/07/19 20:17:59;;;;;;;1999.90;999.90;;;;;;;;;;6760326;88;20197;-80
2023/07/19 20:28:00;;;;;;;1999.90;999.90;;;;;;;;;;6760565;88;20201;-80
2023/07/19 20:38:02;;;;;;;1999.90;999.90;;;;;;;;;;6760958;88;20209;-80
2023/07/19 20:48:03;;;;;;;1999.90;999.90;;;;;;;;;;6760363;88;20188;-81
2023/07/19 20:58:04;;;;;;;1999.90;999.90;;;;;;;;;;6758586;88;20651;-80
2023/07/19 21:08:05;;;;;;;1999.90;999.90;;;;;;;;;;6762570;88;20186;-80
2023/07/19 21:18:06;;;;;;;1999.90;999.90;;;;;;;;;;6760891;88;20266;-79
2023/07/19 21:28:07;;;;;;;1999.90;999.90;;;;;;;;;;6762031;88;20639;-80
2023/07/19 21:38:08;;;;;;;1999.90;999.90;;;;;;;;;;6762396;88;20227;-79
2023/07/19 21:48:09;;;;;;;1999.90;999.90;;;;;;;;;;6761881;88;20181;-81
2023/07/19 21:58:10;;;;;;;1999.90;999.90;;;;;;;;;;6764245;88;20185;-79
2023/07/19 22:08:13;;;;;;;1999.90;999.90;;;;;;;;;;6763629;88;20208;-80
2023/07/19 22:18:18;;;;;;;1999.90;999.90;;;;;;;;;;6765027;88;20275;-81
2023/07/19 22:28:20;;;;;;;1999.90;999.90;;;;;;;;;;6758691;88;20625;-79
2023/07/19 22:38:21;;;;;;;1999.90;999.90;;;;;;;;;;6763103;88;20184;-81
2023/07/19 22:48:22;;;;;;;1999.90;999.90;;;;;;;;;;6763325;88;20202;-79
2023/07/19 22:58:23;;;;;;;1999.90;999.90;;;;;;;;;;6763787;88;20278;-78
2023/07/19 23:08:24;;;;;;;1999.90;999.90;;;;;;;;;;6766116;88;20195;-80
2023/07/19 23:18:25;;;;;;;1999.90;999.90;;;;;;;;;;6763721;88;20200;-81
2023/07/19 23:28:25;;;;;;;1999.90;999.90;;;;;;;;;;6746715;88;20309;-79
2023/07/19 23:38:26;;;;;;;1999.90;999.90;;;;;;;;;;6747530;88;20727;-79
2023/07/19 23:48:27;;;;;;;1999.90;999.90;;;;;;;;;;6747660;88;20340;-79
2023/07/19 23:58:28;;;;;;;1999.90;999.90;;;;;;;;;;6743524;88;20719;-79
